Terminal Aerodrome Forecast
Issued by NWS

Home | Current Version | Previous Version | Text Only | Print | Product List | Glossary On
Versions: 1 2 3 4 5 6 7 8 9 10 11 12 13 14
217
FTUS45 KRIW 230532
TAFLND
TAF
KLND 230532Z 2306/2406 VRB06KT P6SM BKN200
     FM232100 26011KT P6SM BKN200
     FM240300 25014G20KT P6SM SCT200 WS020/27050KT=

USA.gov is the U.S. government's official web portal to all federal, state and local government web resources and services.